Time;durP1;ratioP1;P1;durP2;ratioP2;P2;SDS_P1;SDS_P2;PMS_P1;PMS_P2;Temp;Humidity;BMP_temperature;BMP_pressure;BME280_temperature;BME280_humidity;BME280_pressure;Samples;Min_cycle;Max_cycle;Signal;HPM_P1;HPM_P2
2024/04/12 00:01:48;;;;;;;13.13;5.90;;;;;;;13.97;68.50;101646.45;1380299;93;21638;-81
2024/04/12 00:04:18;;;;;;;14.80;5.70;;;;;;;13.98;68.19;101646.79;1382935;94;21483;-80
2024/04/12 00:06:59;;;;;;;8.93;4.72;;;;;;;13.99;68.12;101649.82;1376833;93;21401;-80
2024/04/12 00:09:23;;;;;;;9.17;4.40;;;;;;;13.99;67.85;101645.33;1377448;94;21312;-80
2024/04/12 00:11:55;;;;;;;8.27;5.23;;;;;;;13.97;67.80;101644.63;1380794;95;21364;-81
2024/04/12 00:14:23;;;;;;;15.70;5.17;;;;;;;13.97;67.94;101647.28;1377374;93;21511;-80
2024/04/12 00:16:52;;;;;;;6.33;4.37;;;;;;;13.94;67.52;101647.56;1401873;93;21450;-80
2024/04/12 00:19:22;;;;;;;7.73;4.70;;;;;;;13.91;67.42;101646.52;1407009;92;21368;-80
2024/04/12 00:21:59;;;;;;;10.50;4.67;;;;;;;13.97;67.21;101647.28;1423889;92;21394;-79
2024/04/12 00:24:29;;;;;;;11.93;4.93;;;;;;;13.96;66.82;101652.27;1414825;92;21465;-80
2024/04/12 00:26:55;;;;;;;7.77;4.10;;;;;;;13.96;66.67;101648.28;1422450;92;21407;-78
2024/04/12 00:29:30;;;;;;;9.87;3.97;;;;;;;13.96;66.23;101656.27;1419933;92;21406;-80
2024/04/12 00:32:03;;;;;;;13.50;5.30;;;;;;;13.95;65.68;101648.41;1417250;92;21407;-81
2024/04/12 00:34:36;;;;;;;9.40;4.25;;;;;;;13.97;65.40;101644.63;1396025;94;21438;-80
2024/04/12 00:37:06;;;;;;;7.40;3.40;;;;;;;13.93;65.14;101643.73;1397544;94;21424;-80
2024/04/12 00:39:35;;;;;;;13.20;4.43;;;;;;;13.89;64.65;101637.83;1399503;92;21488;-80
2024/04/12 00:42:07;;;;;;;10.00;4.17;;;;;;;13.92;64.16;101640.20;1397492;93;22352;-81
2024/04/12 00:44:40;;;;;;;8.63;4.80;;;;;;;13.92;63.45;101642.03;1372443;95;21639;-81
2024/04/12 00:47:16;;;;;;;10.77;4.23;;;;;;;13.90;63.38;101639.52;1403593;92;21262;-81
2024/04/12 00:49:49;;;;;;;5.77;3.57;;;;;;;13.94;63.32;101643.58;1383418;95;21404;-81
2024/04/12 00:52:22;;;;;;;8.40;4.80;;;;;;;13.88;62.80;101636.16;1378799;95;21525;-81
2024/04/12 00:55:03;;;;;;;5.60;3.73;;;;;;;13.87;62.57;101643.80;1426631;92;21557;-82
2024/04/12 00:57:28;;;;;;;9.80;4.33;;;;;;;13.86;62.62;101642.09;1415257;92;21327;-83
2024/04/12 00:59:56;;;;;;;10.70;4.17;;;;;;;13.82;62.42;101642.53;1402094;93;21399;-82
2024/04/12 01:02:25;;;;;;;4.37;3.23;;;;;;;13.84;62.54;101644.08;1389223;93;22257;-82
2024/04/12 01:04:53;;;;;;;8.43;3.93;;;;;;;13.83;62.29;101643.71;1389687;92;21424;-81
2024/04/12 01:07:21;;;;;;;16.17;3.70;;;;;;;13.81;62.49;101635.05;1395103;92;22266;-82
2024/04/12 01:09:49;;;;;;;9.50;4.10;;;;;;;13.79;62.04;101633.50;1412244;92;21443;-81
2024/04/12 01:12:19;;;;;;;4.43;3.07;;;;;;;13.79;62.15;101637.00;1416982;92;21377;-82
2024/04/12 01:14:46;;;;;;;5.67;3.37;;;;;;;13.79;62.10;101635.67;1420187;92;21422;-84
2024/04/12 01:17:13;;;;;;;10.53;4.23;;;;;;;13.73;61.79;101634.89;1382595;92;21913;-81
2024/04/12 01:19:41;;;;;;;8.77;3.70;;;;;;;13.75;62.01;101640.89;1414684;92;22354;-79
2024/04/12 01:22:08;;;;;;;7.40;3.63;;;;;;;13.76;61.99;101635.95;1397975;92;21436;-80
2024/04/12 01:24:39;;;;;;;6.37;3.50;;;;;;;13.75;62.13;101639.10;1396987;93;21867;-80
2024/04/12 01:27:06;;;;;;;6.00;3.73;;;;;;;13.74;62.12;101640.06;1391049;93;21517;-81
2024/04/12 01:29:34;;;;;;;9.23;3.83;;;;;;;13.69;62.27;101633.47;1403368;92;21275;-81
2024/04/12 01:32:04;;;;;;;10.63;4.33;;;;;;;13.66;62.52;101628.43;1418317;92;21407;-81
2024/04/12 01:34:31;;;;;;;5.33;3.73;;;;;;;13.66;62.56;101632.42;1400758;92;21374;-80
2024/04/12 01:37:03;;;;;;;8.50;3.97;;;;;;;13.64;62.48;101629.08;1389506;94;21377;-83
2024/04/12 01:39:34;;;;;;;6.93;4.07;;;;;;;13.63;62.52;101628.71;1406214;92;21479;-81
2024/04/12 01:42:04;;;;;;;8.27;3.97;;;;;;;13.63;62.51;101629.55;1399529;93;21553;-82
2024/04/12 01:44:29;;;;;;;8.00;4.00;;;;;;;13.62;62.48;101629.70;1404880;92;21472;-82
2024/04/12 01:46:57;;;;;;;9.77;4.13;;;;;;;13.59;62.74;101622.83;1417739;92;21453;-81
2024/04/12 01:49:24;;;;;;;6.93;4.13;;;;;;;13.54;62.80;101625.89;1401023;92;21332;-81
2024/04/12 01:51:53;;;;;;;10.27;4.80;;;;;;;13.52;63.01;101622.55;1414277;92;21338;-81
2024/04/12 01:54:22;;;;;;;9.33;4.73;;;;;;;13.49;63.11;101617.98;1412947;92;22238;-79
2024/04/12 01:56:50;;;;;;;10.97;4.07;;;;;;;13.44;63.71;101626.39;1414717;92;22330;-82
2024/04/12 01:59:21;;;;;;;12.00;4.93;;;;;;;13.38;63.37;101617.63;1421442;92;21410;-81
2024/04/12 02:01:53;;;;;;;5.87;3.47;;;;;;;13.38;63.53;101622.95;1411856;92;21334;-81
2024/04/12 02:04:21;;;;;;;8.13;4.77;;;;;;;13.36;63.77;101622.23;1396915;92;22272;-81
2024/04/12 02:06:49;;;;;;;10.07;3.97;;;;;;;13.34;63.69;101620.19;1418598;92;21474;-81
2024/04/12 02:09:19;;;;;;;10.43;3.97;;;;;;;13.34;64.05;101625.51;1417598;92;21438;-81
2024/04/12 02:11:46;;;;;;;10.83;3.80;;;;;;;13.33;63.91;101622.51;1401890;92;21535;-81
2024/04/12 02:14:14;;;;;;;6.83;3.87;;;;;;;13.30;63.99;101623.63;1410946;92;22112;-81
2024/04/12 02:16:42;;;;;;;9.10;3.80;;;;;;;13.26;64.14;101622.22;1385418;92;21334;-82
2024/04/12 02:19:13;;;;;;;10.00;3.67;;;;;;;13.26;64.20;101622.69;1393456;94;21378;-82
2024/04/12 02:21:40;;;;;;;7.77;4.00;;;;;;;13.26;64.42;101629.33;1402419;92;22675;-83
2024/04/12 02:24:11;;;;;;;11.13;3.53;;;;;;;13.22;64.37;101627.91;1398213;93;21391;-83
2024/04/12 02:26:42;;;;;;;12.07;4.00;;;;;;;13.20;64.34;101627.19;1420228;92;21445;-81
2024/04/12 02:29:08;;;;;;;9.67;3.97;;;;;;;13.17;64.50;101630.95;1412494;92;21474;-84
2024/04/12 02:31:36;;;;;;;11.47;4.40;;;;;;;13.13;64.77;101624.73;1411249;92;21520;-80
2024/04/12 02:34:03;;;;;;;5.93;4.17;;;;;;;13.15;64.63;101633.39;1414582;92;22383;-81
2024/04/12 02:36:30;;;;;;;6.60;3.47;;;;;;;13.12;64.87;101633.66;1413948;92;21347;-80
2024/04/12 02:38:58;;;;;;;10.77;4.30;;;;;;;13.06;65.09;101631.92;1416840;92;21383;-82
2024/04/12 02:41:30;;;;;;;8.57;4.07;;;;;;;13.06;65.21;101635.04;1402106;93;22285;-81
2024/04/12 02:44:03;;;;;;;9.77;4.87;;;;;;;13.06;64.78;101633.25;1397992;93;21443;-81
2024/04/12 02:46:26;;;;;;;6.47;3.83;;;;;;;13.00;65.09;101632.43;1400591;92;21392;-82
2024/04/12 02:48:54;;;;;;;5.73;3.77;;;;;;;12.96;65.25;101636.34;1400827;93;21331;-81
2024/04/12 02:51:24;;;;;;;5.57;3.40;;;;;;;12.90;65.32;101634.22;1403054;93;21444;-81
2024/04/12 02:53:51;;;;;;;7.60;3.50;;;;;;;12.91;65.20;101641.20;1396959;92;21486;-81
2024/04/12 02:56:24;;;;;;;10.37;3.63;;;;;;;12.89;65.53;101641.85;1406917;92;21357;-81
2024/04/12 02:58:52;;;;;;;6.75;3.90;;;;;;;12.86;65.31;101643.45;1419982;92;21478;-83
2024/04/12 03:01:24;;;;;;;;;;;;;;;12.81;65.27;101643.83;1425697;92;21363;-80
2024/04/12 03:03:58;;;;;;;7.37;3.40;;;;;;;12.80;65.61;101643.95;1394667;94;20923;-82
2024/04/12 03:06:31;;;;;;;10.67;4.00;;;;;;;12.78;65.32;101644.10;1377267;93;21435;-81
2024/04/12 03:09:05;;;;;;;9.50;3.30;;;;;;;12.76;65.51;101637.23;1395046;92;21555;-80
2024/04/12 03:11:36;;;;;;;7.00;3.30;;;;;;;12.78;65.44;101655.22;1373773;95;21626;-80
2024/04/12 03:14:09;;;;;;;8.10;3.20;;;;;;;12.77;65.18;101646.87;1366684;95;21458;-80
2024/04/12 03:16:40;;;;;;;8.07;3.10;;;;;;;12.71;65.33;101648.24;1377567;95;21645;-80
2024/04/12 03:19:09;;;;;;;4.22;3.10;;;;;;;12.72;65.05;101649.95;1396799;93;21303;-81
2024/04/12 03:21:40;;;;;;;10.17;3.40;;;;;;;12.71;65.16;101648.24;1396960;93;22263;-81
2024/04/12 03:24:11;;;;;;;7.08;3.67;;;;;;;12.69;65.29;101652.86;1400411;93;22434;-81
2024/04/12 03:26:38;;;;;;;10.57;3.97;;;;;;;12.65;65.12;101644.30;1393536;92;22499;-81
2024/04/12 03:29:06;;;;;;;6.50;3.17;;;;;;;12.59;65.51;101646.64;1395078;93;21458;-79
2024/04/12 03:31:38;;;;;;;8.47;3.20;;;;;;;12.60;65.11;101641.67;1391497;93;21361;-80
2024/04/12 03:34:08;;;;;;;11.97;3.43;;;;;;;12.59;65.10;101642.66;1392362;93;21628;-80
2024/04/12 03:42:18;;;;;;;8.60;3.63;;;;;;;12.52;65.37;101643.68;1396072;93;22353;-80
2024/04/12 03:44:31;;;;;;;6.90;3.27;;;;;;;12.53;65.28;101649.33;1397014;93;21354;-80
2024/04/12 03:47:01;;;;;;;;;;;;;;;12.51;65.27;101647.28;1394510;93;21369;-80
2024/04/12 03:49:29;;;;;;;7.87;3.57;;;;;;;12.49;65.40;101655.05;1385839;93;20819;-80
2024/04/12 03:51:57;;;;;;;4.50;3.10;;;;;;;12.45;65.45;101656.27;1389487;93;21354;-79
2024/04/12 03:54:26;;;;;;;12.37;4.77;;;;;;;12.45;65.47;101657.10;1397766;92;21421;-80
2024/04/12 03:57:05;;;;;;;5.90;4.20;;;;;;;12.44;65.33;101656.76;1396248;92;21376;-80
2024/04/12 03:59:28;;;;;;;12.83;4.40;;;;;;;12.46;65.37;101665.45;1373815;95;22332;-80
2024/04/12 04:01:56;;;;;;;8.80;4.00;;;;;;;12.48;65.51;101663.48;1388167;94;21438;-79
2024/04/12 04:04:25;;;;;;;9.33;4.80;;;;;;;12.47;65.92;101659.16;1376817;95;21334;-84
2024/04/12 04:06:57;;;;;;;6.17;3.33;;;;;;;12.44;65.87;101668.70;1384409;93;21478;-83
2024/04/12 04:09:26;;;;;;;7.43;3.63;;;;;;;12.41;65.43;101664.98;1378131;93;21422;-84
2024/04/12 04:11:54;;;;;;;7.43;3.30;;;;;;;12.39;65.80;101664.27;1384376;93;22875;-84
2024/04/12 04:14:27;;;;;;;10.80;3.47;;;;;;;12.41;65.87;101672.95;1385627;95;22370;-84
2024/04/12 04:16:57;;;;;;;8.17;4.03;;;;;;;12.43;65.74;101676.33;1379414;93;21757;-84
2024/04/12 04:19:33;;;;;;;11.43;4.30;;;;;;;12.40;66.40;101676.59;1383320;93;21373;-83
2024/04/12 04:22:49;;;;;;;8.70;3.17;;;;;;;12.43;66.07;101677.66;1379702;95;22369;-83
2024/04/12 04:24:38;;;;;;;9.30;3.53;;;;;;;12.42;65.91;101674.13;1374194;95;21512;-84
2024/04/12 04:27:08;;;;;;;8.27;3.37;;;;;;;12.42;66.15;101677.28;1383153;93;21401;-89
2024/04/12 04:29:37;;;;;;;7.93;2.90;;;;;;;12.45;66.08;101677.02;1379364;93;22436;-90
2024/04/12 04:32:09;;;;;;;6.80;3.43;;;;;;;12.39;66.41;101682.36;1380120;93;22384;-87
2024/04/12 04:34:34;;;;;;;4.58;3.17;;;;;;;12.45;66.47;101682.33;1362315;95;22514;-88
2024/04/12 04:37:05;;;;;;;6.47;3.67;;;;;;;12.40;66.72;101682.73;1382601;93;21379;-87
2024/04/12 04:39:32;;;;;;;10.07;3.53;;;;;;;12.48;66.48;101686.05;1383736;94;21467;-87
2024/04/12 04:42:00;;;;;;;6.10;2.90;;;;;;;12.54;66.46;101688.67;1387279;93;21486;-87
2024/04/12 04:44:29;;;;;;;11.07;3.23;;;;;;;12.54;66.49;101694.83;1382947;95;21342;-89
2024/04/12 04:46:57;;;;;;;12.10;3.73;;;;;;;12.59;66.08;101691.30;1379471;95;21576;-87
2024/04/12 04:49:24;;;;;;;10.63;3.77;;;;;;;12.64;66.17;101699.73;1383644;93;21378;-89
2024/04/12 04:51:51;;;;;;;8.77;3.87;;;;;;;12.69;65.89;101693.17;1366334;95;21523;-88
2024/04/12 04:54:22;;;;;;;13.50;4.83;;;;;;;12.76;66.11;101694.34;1379162;93;22318;-89
2024/04/12 04:56:50;;;;;;;9.43;3.53;;;;;;;12.80;66.11;101691.77;1381678;93;21298;-85
2024/04/12 04:59:28;;;;;;;12.97;3.53;;;;;;;12.83;65.81;101695.48;1386425;93;21423;-88
2024/04/12 05:01:49;;;;;;;7.70;3.20;;;;;;;12.90;65.67;101695.34;1382686;94;22436;-85
2024/04/12 05:04:25;;;;;;;10.57;4.47;;;;;;;12.96;65.53;101697.95;1380784;93;21402;-87
2024/04/12 05:06:55;;;;;;;6.27;3.37;;;;;;;13.00;65.40;101702.85;1392150;94;21597;-87
2024/04/12 05:09:23;;;;;;;6.97;2.90;;;;;;;13.06;64.79;101707.66;1386386;93;21557;-86
2024/04/12 05:11:50;;;;;;;11.03;3.23;;;;;;;13.12;64.79;101702.31;1380823;94;21461;-87
2024/04/12 05:17:03;;;;;;;12.93;3.50;;;;;;;13.27;64.52;101698.83;1386923;93;21631;-86
2024/04/12 05:19:44;;;;;;;8.70;3.42;;;;;;;13.36;64.30;101701.17;1381131;95;21402;-87
2024/04/12 05:22:06;;;;;;;10.13;4.00;;;;;;;13.36;63.60;101702.00;1377919;95;21556;-85
2024/04/12 05:24:35;;;;;;;6.10;3.43;;;;;;;13.45;63.50;101707.84;1382720;93;21535;-85
2024/04/12 05:27:04;;;;;;;5.67;2.97;;;;;;;13.52;63.40;101701.48;1378588;93;21430;-86
2024/04/12 05:29:33;;;;;;;7.43;3.10;;;;;;;13.52;62.70;101709.00;1384177;95;21600;-87
2024/04/12 05:32:01;;;;;;;8.53;3.87;;;;;;;13.53;62.56;101704.02;1384007;93;21342;-86
2024/04/12 05:34:28;;;;;;;7.10;3.73;;;;;;;13.61;62.37;101707.80;1380017;93;21577;-87
2024/04/12 05:37:03;;;;;;;8.10;3.43;;;;;;;13.74;62.82;101709.23;1378928;93;21698;-88
2024/04/12 05:39:32;;;;;;;13.63;3.50;;;;;;;13.80;62.08;101713.17;1385678;94;21452;-87
2024/04/12 05:41:58;;;;;;;6.83;3.63;;;;;;;13.87;60.93;101712.99;1381002;93;22265;-86
2024/04/12 05:44:26;;;;;;;8.67;3.87;;;;;;;13.89;61.34;101709.67;1378435;93;21850;-85
2024/04/12 05:46:53;;;;;;;8.10;4.20;;;;;;;14.02;61.49;101708.59;1385188;93;21453;-81
2024/04/12 05:49:21;;;;;;;6.90;3.10;;;;;;;14.11;61.61;101711.25;1382168;93;22267;-85
2024/04/12 05:51:49;;;;;;;7.33;4.17;;;;;;;14.11;59.54;101715.73;1380935;93;21342;-84
2024/04/12 05:54:17;;;;;;;7.00;3.90;;;;;;;14.20;59.97;101718.89;1385146;93;21512;-87
2024/04/12 05:56:47;;;;;;;10.97;3.80;;;;;;;14.32;59.94;101716.92;1383325;93;22219;-85
2024/04/12 05:59:15;;;;;;;7.10;3.90;;;;;;;14.32;58.75;101716.43;1383021;93;21459;-86
2024/04/12 06:01:47;;;;;;;8.47;4.33;;;;;;;14.39;58.28;101712.23;1382508;93;21386;-86
2024/04/12 06:04:19;;;;;;;11.90;3.50;;;;;;;14.54;58.67;101719.83;1309987;93;21231;-84
2024/04/12 06:06:49;;;;;;;5.67;3.30;;;;;;;14.61;58.35;101720.92;1455329;93;21321;-85
2024/04/12 06:09:21;;;;;;;5.10;2.77;;;;;;;14.77;57.63;101721.69;1336141;93;22878;-84
2024/04/12 06:11:56;;;;;;;4.80;3.10;;;;;;;14.77;57.14;101715.02;1456025;93;21195;-84
2024/04/12 06:14:24;;;;;;;4.70;3.30;;;;;;;14.80;56.08;101710.23;1376706;95;22105;-85
2024/04/12 06:16:55;;;;;;;8.30;3.40;;;;;;;14.92;56.68;101715.41;1314344;93;21291;-85
2024/04/12 06:19:24;;;;;;;;;;;;;;;14.99;56.01;101711.16;1436448;95;21408;-85
2024/04/12 06:21:52;;;;;;;6.47;3.30;;;;;;;15.11;56.40;101715.34;1300688;95;20232;-84
2024/04/12 06:24:29;;;;;;;7.73;3.37;;;;;;;15.19;55.21;101712.80;1313921;95;22393;-87
2024/04/12 06:26:57;;;;;;;9.07;3.93;;;;;;;15.22;54.01;101717.84;1315788;94;21572;-86
2024/04/12 06:29:28;;;;;;;7.03;3.17;;;;;;;15.30;53.51;101711.75;1318457;93;21291;-85
2024/04/12 06:32:33;;;;;;;18.03;3.77;;;;;;;15.36;53.89;101711.16;1451273;93;22098;-87
2024/04/12 06:35:03;;;;;;;5.27;3.00;;;;;;;15.46;53.33;101716.46;1357086;93;21393;-91
2024/04/12 06:37:31;;;;;;;9.83;3.03;;;;;;;15.49;52.95;101717.50;1380105;93;21422;-87
2024/04/12 06:39:58;;;;;;;6.90;3.00;;;;;;;15.45;52.33;101716.09;1383047;93;21423;-87
2024/04/12 06:42:27;;;;;;;7.80;2.60;;;;;;;15.60;52.79;101730.64;1379585;93;22978;-85
2024/04/12 06:44:54;;;;;;;13.53;4.87;;;;;;;15.70;52.82;101721.27;1382449;93;21385;-86
2024/04/12 06:47:21;;;;;;;17.93;3.30;;;;;;;15.81;52.18;101724.23;1383218;93;21431;-86
2024/04/12 06:49:52;;;;;;;17.30;3.30;;;;;;;15.95;52.93;101725.05;1382351;94;21505;-87
2024/04/12 06:52:22;;;;;;;3.97;2.50;;;;;;;16.12;52.47;101726.89;1363911;95;21393;-85
2024/04/12 06:54:50;;;;;;;9.40;3.15;;;;;;;16.19;51.85;101716.42;1377150;93;22339;-84
2024/04/12 06:57:18;;;;;;;11.63;3.50;;;;;;;16.20;51.93;101722.13;1377153;93;21556;-86
2024/04/12 06:59:47;;;;;;;10.53;3.90;;;;;;;16.16;50.92;101721.58;1381039;93;21468;-88
2024/04/12 07:02:15;;;;;;;7.50;3.27;;;;;;;16.17;51.58;101725.95;1382607;93;21604;-85
2024/04/12 07:04:42;;;;;;;9.83;3.77;;;;;;;16.33;51.95;101729.75;1383249;93;22542;-86
2024/04/12 07:07:10;;;;;;;6.87;3.60;;;;;;;16.38;51.77;101731.47;1390062;93;21409;-87
2024/04/12 07:09:45;;;;;;;9.10;3.53;;;;;;;16.55;52.24;101730.61;1380148;93;21378;-87
2024/04/12 07:12:09;;;;;;;6.83;3.27;;;;;;;16.55;50.55;101733.78;1382332;94;21482;-87
2024/04/12 07:14:41;;;;;;;14.90;4.50;;;;;;;16.59;50.97;101734.63;1381802;93;21474;-87
2024/04/12 07:17:28;;;;;;;11.33;3.80;;;;;;;16.69;51.11;101730.05;1384015;93;21467;-87
2024/04/12 07:19:53;;;;;;;13.20;3.50;;;;;;;16.80;50.75;101728.13;1379013;95;21579;-87
2024/04/12 07:22:26;;;;;;;8.87;3.60;;;;;;;16.88;50.76;101724.17;1380707;93;21409;-86
2024/04/12 07:24:54;;;;;;;5.13;2.87;;;;;;;17.07;51.36;101725.80;1386879;93;21423;-88
2024/04/12 07:27:22;;;;;;;6.00;3.37;;;;;;;17.13;50.08;101727.34;1384650;95;21465;-84
2024/04/12 07:29:51;;;;;;;14.23;3.63;;;;;;;17.22;49.63;101732.23;1385211;93;21497;-88
2024/04/12 07:32:22;;;;;;;9.23;3.60;;;;;;;17.37;50.17;101728.45;1374871;93;21618;-87
2024/04/12 07:34:49;;;;;;;17.48;4.45;;;;;;;17.48;49.89;101728.67;1387815;93;21474;-87
2024/04/12 07:37:31;;;;;;;11.93;3.80;;;;;;;17.53;49.86;101725.85;1379481;93;21409;-87
2024/04/12 07:40:15;;;;;;;12.07;3.40;;;;;;;17.58;48.15;101728.89;1387350;95;21549;-87
2024/04/12 07:42:19;;;;;;;7.00;3.13;;;;;;;17.69;48.84;101726.90;1381759;94;22377;-87
2024/04/12 07:44:46;;;;;;;5.43;2.73;;;;;;;17.86;49.08;101727.81;1382839;93;21631;-87
2024/04/12 07:47:16;;;;;;;5.00;3.23;;;;;;;17.99;48.45;101726.34;1383469;93;22797;-88
2024/04/12 07:49:48;;;;;;;5.37;2.67;;;;;;;18.10;47.38;101729.73;1384837;95;21423;-86
2024/04/12 07:52:13;;;;;;;15.43;3.45;;;;;;;18.12;46.55;101722.34;1377958;94;21349;-89
2024/04/12 07:54:40;;;;;;;5.70;3.25;;;;;;;18.02;46.58;101727.36;1382543;95;22378;-88
2024/04/12 07:57:07;;;;;;;8.20;3.50;;;;;;;17.96;46.01;101732.03;1388069;95;21379;-90
2024/04/12 07:59:37;;;;;;;8.98;2.80;;;;;;;18.00;46.80;101730.69;1382935;93;21357;-90
2024/04/12 08:02:05;;;;;;;7.12;3.20;;;;;;;18.17;47.34;101728.05;1380055;93;21438;-91
2024/04/12 08:04:45;;;;;;;5.30;2.65;;;;;;;18.18;46.45;101724.35;1384195;93;21430;-88
2024/04/12 08:07:17;;;;;;;5.70;3.52;;;;;;;18.32;46.16;101723.69;1379636;94;22489;-90
2024/04/12 08:09:44;;;;;;;11.63;3.58;;;;;;;18.36;45.38;101722.38;1382118;94;21422;-89
2024/04/12 08:12:23;;;;;;;9.90;2.95;;;;;;;18.54;46.76;101728.89;1380113;95;21409;-88
2024/04/12 08:15:16;;;;;;;;;;;;;;;;;;;;;
2024/04/12 08:17:26;;;;;;;5.75;3.35;;;;;;;18.86;45.97;101724.02;1378712;95;22481;-91
2024/04/12 08:19:57;;;;;;;7.30;3.52;;;;;;;18.87;45.07;101711.44;1390365;95;21438;-88
2024/04/12 08:22:25;;;;;;;8.05;3.83;;;;;;;18.91;45.85;101723.02;1385734;93;21357;-89
2024/04/12 08:24:54;;;;;;;6.58;2.95;;;;;;;19.01;45.48;101717.95;1382426;93;21446;-90
2024/04/12 08:27:30;;;;;;;22.98;3.85;;;;;;;19.23;45.17;101719.08;1380436;93;21386;-90
2024/04/12 08:29:56;;;;;;;11.10;3.90;;;;;;;19.32;44.86;101714.00;1377344;94;21660;-88
2024/04/12 08:32:31;;;;;;;7.35;3.87;;;;;;;19.09;43.57;101719.28;1379052;93;21357;-87
2024/04/12 08:34:59;;;;;;;7.95;2.92;;;;;;;19.03;44.30;101714.61;1381437;93;21459;-88
2024/04/12 08:37:47;;;;;;;7.40;3.42;;;;;;;19.01;44.14;101712.59;1366300;95;22309;-87
2024/04/12 08:39:57;;;;;;;7.20;3.85;;;;;;;19.21;44.44;101711.69;1378689;95;22400;-87
2024/04/12 08:42:32;;;;;;;8.05;3.50;;;;;;;19.29;44.23;101708.47;1382940;95;21603;-89
2024/04/12 08:45:12;;;;;;;12.68;3.50;;;;;;;19.51;44.68;101711.42;1389894;93;21371;-88
2024/04/12 08:47:36;;;;;;;8.28;3.12;;;;;;;19.64;43.84;101703.61;1387624;94;21460;-87
2024/04/12 08:50:07;;;;;;;11.35;3.33;;;;;;;19.74;43.45;101708.30;1376746;93;21394;-88
2024/04/12 08:52:47;;;;;;;7.80;3.27;;;;;;;19.79;43.10;101703.23;1377399;93;21335;-85
2024/04/12 08:55:13;;;;;;;10.05;3.42;;;;;;;20.01;44.07;101696.70;1378535;94;21611;-89
2024/04/12 08:57:42;;;;;;;7.53;3.33;;;;;;;20.29;43.92;101698.34;1380555;93;21357;-92
2024/04/12 09:00:28;;;;;;;8.23;3.77;;;;;;;20.45;43.19;101696.00;1379176;93;22428;-89
2024/04/12 09:02:50;;;;;;;14.30;3.77;;;;;;;20.33;41.49;101700.15;1380577;95;22458;-89
2024/04/12 09:05:25;;;;;;;7.20;3.08;;;;;;;20.09;41.70;101698.50;1377852;95;21476;-87
2024/04/12 09:07:58;;;;;;;9.13;3.33;;;;;;;20.09;42.10;101691.78;1383461;94;21424;-88
2024/04/12 09:10:27;;;;;;;6.67;3.52;;;;;;;20.15;42.54;101690.55;1381597;93;21549;-86
2024/04/12 09:12:54;;;;;;;10.88;3.55;;;;;;;20.10;41.01;101691.59;1385849;93;21490;-87
2024/04/12 09:15:27;;;;;;;10.55;3.87;;;;;;;20.32;42.13;101690.42;1382194;95;22486;-87
2024/04/12 09:20:44;;;;;;;10.60;6.15;;;;;;;20.40;41.78;101682.27;1382603;93;21327;-93
2024/04/12 09:23:16;;;;;;;17.75;7.53;;;;;;;20.14;41.02;101675.45;1387206;93;21586;-87
2024/04/12 09:25:54;;;;;;;12.03;4.28;;;;;;;20.02;42.11;101673.70;1382617;93;21416;-88
2024/04/12 09:28:17;;;;;;;6.72;3.83;;;;;;;20.10;41.92;101675.47;1383947;94;21604;-91
2024/04/12 09:33:31;;;;;;;16.48;9.75;;;;;;;20.22;42.27;101676.70;1369231;95;21505;-88
2024/04/12 09:36:14;;;;;;;21.73;13.20;;;;;;;20.32;41.43;101670.27;1376933;95;21567;-87
2024/04/12 09:38:41;;;;;;;16.30;7.55;;;;;;;20.58;41.94;101677.95;1382972;93;21342;-89
2024/04/12 09:41:32;;;;;;;9.83;4.28;;;;;;;20.71;41.43;101670.92;1386396;95;21461;-88
2024/04/12 09:44:00;;;;;;;6.37;3.58;;;;;;;20.59;40.64;101675.06;1377094;93;21542;-87
2024/04/12 09:46:46;;;;;;;9.88;3.27;;;;;;;20.96;41.63;101665.26;1378568;93;21402;-86
2024/04/12 10:37:23;;;;;;;11.53;4.15;;;;;;;21.39;40.76;101665.42;1380280;95;22533;-88
2024/04/12 10:38:54;;;;;;;9.28;3.58;;;;;;;21.85;38.10;101620.64;1377313;93;21394;-87
2024/04/12 10:41:22;;;;;;;4.30;2.70;;;;;;;21.75;36.29;101617.42;1379049;95;21341;-88
2024/04/12 10:43:51;;;;;;;5.03;2.83;;;;;;;21.86;37.33;101608.82;1381285;95;21401;-88
2024/04/12 10:46:18;;;;;;;13.93;3.15;;;;;;;21.98;37.16;101607.30;1363012;95;21453;-85
2024/04/12 10:48:45;;;;;;;7.25;2.70;;;;;;;22.09;37.96;101608.08;1382291;95;21320;-87
2024/04/12 10:51:16;;;;;;;13.62;3.20;;;;;;;22.13;37.97;101605.86;1376773;93;21371;-89
2024/04/12 10:53:46;;;;;;;4.97;2.58;;;;;;;22.40;38.00;101604.73;1378143;93;21476;-87
2024/04/12 10:56:18;;;;;;;13.05;2.85;;;;;;;22.31;36.61;101608.09;1376397;93;21431;-87
2024/04/12 10:58:49;;;;;;;8.33;2.98;;;;;;;22.25;37.84;101606.19;1376671;95;21423;-86
2024/04/12 11:01:16;;;;;;;10.00;2.80;;;;;;;22.22;37.06;101602.53;1378921;95;21669;-86
2024/04/12 11:03:56;;;;;;;6.25;2.60;;;;;;;22.40;37.66;101589.37;1382347;93;21364;-87
2024/04/12 11:06:18;;;;;;;6.73;3.53;;;;;;;22.50;36.57;101595.78;1383450;94;21452;-87
2024/04/12 11:08:47;;;;;;;9.18;2.95;;;;;;;22.53;36.71;101593.52;1377139;93;22281;-87
2024/04/12 11:11:19;;;;;;;11.22;3.58;;;;;;;22.69;36.43;101591.52;1382273;93;21357;-86
2024/04/12 11:13:47;;;;;;;9.35;2.72;;;;;;;22.79;36.83;101590.64;1379246;93;22303;-87
2024/04/12 11:33:04;;;;;;;6.30;2.55;;;;;;;22.87;36.24;101551.84;1383529;93;21415;-86
2024/04/12 11:35:34;;;;;;;6.97;2.70;;;;;;;23.07;36.19;101562.74;1382488;95;21349;-87
2024/04/12 11:38:04;;;;;;;6.15;2.35;;;;;;;23.17;35.39;101566.73;1384001;95;21417;-86
2024/04/12 11:40:37;;;;;;;6.50;3.40;;;;;;;23.23;35.05;101561.56;1377553;93;22289;-87
2024/04/12 11:43:00;;;;;;;5.65;2.55;;;;;;;23.41;35.08;101555.87;1382307;94;21423;-87
2024/04/12 11:45:30;;;;;;;9.85;2.58;;;;;;;23.50;34.18;101557.03;1375057;93;21548;-86
2024/04/12 11:47:58;;;;;;;6.87;2.27;;;;;;;23.41;34.11;101551.81;1382154;93;21557;-86
2024/04/12 11:50:26;;;;;;;11.40;2.70;;;;;;;23.57;34.53;101547.91;1380647;93;21579;-86
2024/04/12 11:52:55;;;;;;;5.90;2.70;;;;;;;23.52;33.52;101549.03;1381752;95;21446;-87
2024/04/12 11:55:26;;;;;;;6.55;2.37;;;;;;;23.43;32.82;101546.22;1374701;94;21364;-86
2024/04/12 11:57:53;;;;;;;9.00;3.07;;;;;;;23.19;32.77;101544.94;1380083;94;21597;-86
2024/04/12 12:00:20;;;;;;;4.37;1.82;;;;;;;23.30;32.87;101543.48;1379527;93;21778;-86
2024/04/12 12:02:51;;;;;;;11.03;2.37;;;;;;;23.38;34.01;101541.42;1382124;93;21483;-87
2024/04/12 12:05:17;;;;;;;6.00;2.00;;;;;;;23.55;32.76;101532.93;1387291;94;21520;-88
2024/04/12 12:07:45;;;;;;;8.35;2.67;;;;;;;23.51;33.49;101532.52;1375758;93;21445;-91
2024/04/12 12:10:16;;;;;;;8.68;2.95;;;;;;;23.56;33.45;101530.53;1386379;95;21430;-88
2024/04/12 12:12:43;;;;;;;4.50;2.45;;;;;;;23.55;33.99;101525.66;1377715;95;22534;-88
2024/04/12 12:15:13;;;;;;;12.98;3.33;;;;;;;23.69;33.41;101519.74;1379840;93;21445;-88
2024/04/12 12:17:39;;;;;;;29.65;3.85;;;;;;;23.86;33.50;101519.66;1379864;94;21460;-87
2024/04/12 12:20:07;;;;;;;19.35;3.02;;;;;;;23.96;33.86;101508.94;1381715;93;21408;-88
2024/04/12 12:22:34;;;;;;;23.83;2.42;;;;;;;23.82;32.08;101517.57;1374452;95;21465;-86
2024/04/12 12:25:02;;;;;;;15.00;2.05;;;;;;;23.97;32.77;101504.69;1378922;93;22486;-88
2024/04/12 12:27:29;;;;;;;3.52;1.57;;;;;;;24.14;33.23;101501.02;1376085;93;21423;-87
2024/04/12 12:29:56;;;;;;;10.10;2.27;;;;;;;24.04;30.01;101499.26;1381363;93;21445;-86
2024/04/12 12:32:31;;;;;;;11.15;2.58;;;;;;;23.87;30.97;101499.69;1382831;93;21533;-86
2024/04/12 12:34:53;;;;;;;13.32;1.98;;;;;;;24.05;32.46;101500.41;1381225;95;22641;-87
2024/04/12 12:37:20;;;;;;;11.90;2.37;;;;;;;24.37;31.21;101491.08;1379150;93;21394;-85
2024/04/12 12:39:47;;;;;;;9.10;2.33;;;;;;;24.69;31.24;101492.02;1387586;93;22281;-85
2024/04/12 12:42:16;;;;;;;8.15;2.33;;;;;;;24.86;31.09;101487.44;1384837;95;21439;-86
2024/04/12 12:44:43;;;;;;;9.93;3.35;;;;;;;25.12;30.11;101483.77;1377049;93;21379;-86
2024/04/12 12:47:13;;;;;;;7.72;2.17;;;;;;;25.29;31.12;101482.22;1383002;93;22391;-86
2024/04/12 12:49:40;;;;;;;6.83;1.95;;;;;;;25.54;31.34;101479.49;1385211;93;21592;-85
2024/04/12 12:52:14;;;;;;;6.15;1.80;;;;;;;25.68;30.61;101476.68;1383279;93;21461;-87
2024/04/12 12:54:41;;;;;;;5.40;1.85;;;;;;;25.80;29.69;101478.42;1381857;95;21468;-86